Time;durP1;ratioP1;P1;durP2;ratioP2;P2;SDS_P1;SDS_P2;PMS_P1;PMS_P2;Temp;Humidity;BMP_temperature;BMP_pressure;BME280_temperature;BME280_humidity;BME280_pressure;Samples;Min_cycle;Max_cycle;Signal;HPM_P1;HPM_P2
2023/12/04 00:01:49;;;;;;;24.87;14.93;;;;;;;;;;5017227;28;20585;-70
2023/12/04 00:04:15;;;;;;;23.90;15.70;;;;;;;;;;5000766;28;20436;-70
2023/12/04 00:06:44;;;;;;;22.30;14.30;;;;;;;;;;4997729;28;20528;-70
2023/12/04 00:09:10;;;;;;;20.33;15.02;;;;;;;;;;5010477;28;20419;-72
2023/12/04 00:11:36;;;;;;;21.23;13.30;;;;;;;;;;4998679;28;20281;-71
2023/12/04 00:14:01;;;;;;;20.77;13.80;;;;;;;;;;5014927;28;20429;-71
2023/12/04 00:16:27;;;;;;;20.13;15.03;;;;;;;;;;5013030;28;20430;-71
2023/12/04 00:18:53;;;;;;;25.53;14.03;;;;;;;;;;5014334;28;20458;-71
2023/12/04 00:21:19;;;;;;;16.33;12.07;;;;;;;;;;5008507;28;20454;-71
2023/12/04 00:23:45;;;;;;;17.63;10.73;;;;;;;;;;4995067;28;20967;-72
2023/12/04 00:26:13;;;;;;;20.63;11.93;;;;;;;;;;4993068;28;20426;-72
2023/12/04 00:28:38;;;;;;;14.85;9.60;;;;;;;;;;4993626;28;20973;-71
2023/12/04 00:31:05;;;;;;;12.90;8.80;;;;;;;;;;4994937;28;20279;-71
2023/12/04 00:33:31;;;;;;;18.27;9.38;;;;;;;;;;4993395;28;21135;-71
2023/12/04 00:35:57;;;;;;;16.47;8.23;;;;;;;;;;4994623;28;20177;-71
2023/12/04 00:38:23;;;;;;;15.82;9.02;;;;;;;;;;4994551;28;20551;-72
2023/12/04 00:40:49;;;;;;;14.07;8.20;;;;;;;;;;4994577;28;20295;-72
2023/12/04 00:43:15;;;;;;;14.20;6.93;;;;;;;;;;4994599;28;20408;-73
2023/12/04 00:45:41;;;;;;;11.90;8.73;;;;;;;;;;4993031;28;20510;-73
2023/12/04 00:48:07;;;;;;;18.97;11.60;;;;;;;;;;4993102;28;20567;-72
2023/12/04 00:50:33;;;;;;;14.90;11.13;;;;;;;;;;4993013;28;20459;-71
2023/12/04 00:52:59;;;;;;;18.37;11.10;;;;;;;;;;4994421;28;20419;-71
2023/12/04 00:55:25;;;;;;;20.20;14.02;;;;;;;;;;4994229;28;20790;-71
2023/12/04 00:57:51;;;;;;;21.87;14.53;;;;;;;;;;4995265;28;20290;-71
2023/12/04 01:00:17;;;;;;;23.00;15.53;;;;;;;;;;5009269;28;20443;-71
2023/12/04 01:02:43;;;;;;;22.17;14.40;;;;;;;;;;4994223;28;20416;-71
2023/12/04 01:05:09;;;;;;;21.30;14.40;;;;;;;;;;4994171;28;20176;-71
2023/12/04 01:07:35;;;;;;;22.67;16.23;;;;;;;;;;4994164;28;20451;-71
2023/12/04 01:10:01;;;;;;;23.13;15.23;;;;;;;;;;4994063;28;20660;-71
2023/12/04 01:12:27;;;;;;;20.48;14.75;;;;;;;;;;4994065;28;20609;-71
2023/12/04 01:14:52;;;;;;;16.63;12.25;;;-5.80;24.90;;;;;;5009249;28;20562;-73
2023/12/04 01:17:18;;;;;;;19.53;13.40;;;-5.90;25.40;;;;;;4994258;28;20177;-71
2023/12/04 01:19:43;;;;;;;23.70;15.07;;;-5.90;27.60;;;;;;4992606;28;20536;-71
2023/12/04 01:22:09;;;;;;;22.03;15.13;;;-5.90;28.00;;;;;;4993918;28;20173;-71
2023/12/04 01:24:34;;;;;;;21.43;13.77;;;-6.00;28.70;;;;;;4993775;28;20648;-72
2023/12/04 01:27:00;;;;;;;21.97;15.90;;;-6.00;29.30;;;;;;4993691;28;20172;-72
2023/12/04 01:29:25;;;;;;;22.03;15.77;;;-6.10;29.30;;;;;;4992478;28;20184;-73
2023/12/04 01:31:51;;;;;;;20.67;15.60;;;-6.10;29.30;;;;;;4993868;28;20223;-72
2023/12/04 01:34:16;;;;;;;23.73;17.50;;;-6.10;29.30;;;;;;4992523;28;20296;-72
2023/12/04 01:36:42;;;;;;;23.07;16.63;;;-6.20;34.80;;;;;;4992164;28;20573;-72
2023/12/04 01:39:08;;;;;;;21.67;17.03;;;-6.20;35.80;;;;;;4993551;28;20675;-73
2023/12/04 01:41:33;;;;;;;25.93;17.93;;;-6.30;35.70;;;;;;4992239;28;20572;-72
2023/12/04 01:43:59;;;;;;;20.97;15.03;;;-6.20;35.90;;;;;;4993508;28;20255;-72
2023/12/04 01:46:25;;;;;;;28.40;16.13;;;-6.30;36.40;;;;;;4993240;28;20180;-72
2023/12/04 01:48:51;;;;;;;22.90;17.73;;;-6.30;36.40;;;;;;4993250;28;20185;-72
2023/12/04 01:51:18;;;;;;;22.00;17.70;;;-6.30;36.30;;;;;;4992073;28;20592;-72
2023/12/04 01:53:43;;;;;;;32.03;20.33;;;-6.30;36.20;;;;;;4994137;28;20946;-72
2023/12/04 01:56:10;;;;;;;28.30;18.13;;;-6.30;36.40;;;;;;4993412;28;20184;-72
2023/12/04 01:58:36;;;;;;;26.88;15.88;;;-6.30;36.40;;;;;;5003866;28;20557;-72
2023/12/04 02:01:03;;;;;;;23.38;17.02;;;-6.40;36.70;;;;;;5011593;28;20199;-72
2023/12/04 02:03:28;;;;;;;23.30;15.48;;;-6.40;36.50;;;;;;5012974;28;20635;-71
2023/12/04 02:05:58;;;;;;;29.50;16.63;;;-6.40;36.90;;;;;;5012548;28;20176;-73
2023/12/04 02:08:24;;;;;;;24.20;16.45;;;-6.40;37.70;;;;;;5011315;28;20214;-74
2023/12/04 02:10:50;;;;;;;26.37;16.57;;;-6.50;37.40;;;;;;5012540;28;20228;-71
2023/12/04 02:13:15;;;;;;;31.17;18.70;;;-6.50;38.50;;;;;;5012499;28;20883;-72
2023/12/04 02:15:42;;;;;;;30.92;18.90;;;-6.50;36.80;;;;;;5012507;28;20639;-72
2023/12/04 02:18:08;;;;;;;21.53;16.47;;;-6.50;37.40;;;;;;5012374;28;20261;-72
2023/12/04 02:20:34;;;;;;;26.43;20.30;;;-6.60;38.20;;;;;;5012349;28;20219;-72
2023/12/04 02:23:04;;;;;;;18.48;14.45;;;-6.70;38.40;;;;;;5012420;28;20488;-71
2023/12/04 02:25:30;;;;;;;28.92;18.75;;;-6.70;39.20;;;;;;5012252;28;20201;-72
2023/12/04 02:27:57;;;;;;;25.25;17.98;;;;;;;;;;5012344;28;20178;-72
2023/12/04 02:30:25;;;;;;;27.92;19.92;;;-6.70;25.20;;;;;;4992232;28;20211;-73
2023/12/04 02:32:51;;;;;;;26.95;18.42;;;-6.80;24.20;;;;;;4992497;28;20263;-73
2023/12/04 02:35:22;;;;;;;28.73;21.13;;;-6.90;25.10;;;;;;4992549;28;20671;-73
2023/12/04 02:37:48;;;;;;;33.38;19.58;;;-6.80;26.80;;;;;;4992227;28;20547;-72
2023/12/04 02:40:14;;;;;;;29.90;17.05;;;-6.90;26.80;;;;;;4992546;28;20541;-71
2023/12/04 02:42:40;;;;;;;29.93;19.30;;;-6.90;26.50;;;;;;4991253;28;20196;-72
2023/12/04 02:45:06;;;;;;;27.30;20.53;;;-7.00;26.60;;;;;;4992377;28;20412;-71
2023/12/04 02:47:31;;;;;;;25.45;16.83;;;-6.90;26.20;;;;;;5000205;28;20186;-72
2023/12/04 02:49:57;;;;;;;28.43;18.73;;;-7.00;26.20;;;;;;5011737;28;20215;-72
2023/12/04 02:52:22;;;;;;;33.27;19.60;;;-7.00;26.90;;;;;;5011939;28;20182;-71
2023/12/04 02:54:48;;;;;;;31.43;19.93;;;-7.00;26.80;;;;;;5010674;28;20175;-72
2023/12/04 02:57:13;;;;;;;27.23;18.00;;;-7.00;27.50;;;;;;5011787;28;20179;-71
2023/12/04 02:59:39;;;;;;;26.53;17.27;;;-7.00;28.70;;;;;;5012024;28;20186;-72
2023/12/04 03:02:04;;;;;;;23.60;17.50;;;-6.90;27.60;;;;;;5012167;28;20543;-71
2023/12/04 03:04:31;;;;;;;36.90;20.57;;;-6.90;28.60;;;;;;5012042;28;20593;-71
2023/12/04 03:06:56;;;;;;;28.60;17.65;;;-6.90;28.40;;;;;;5011771;28;20176;-72
2023/12/04 03:09:22;;;;;;;26.53;16.00;;;-6.90;27.90;;;;;;5011989;28;20550;-72
2023/12/04 03:11:47;;;;;;;32.80;21.47;;;-6.90;28.80;;;;;;5011953;28;20239;-72
2023/12/04 03:14:13;;;;;;;29.57;19.67;;;-6.90;28.80;;;;;;5011937;28;20185;-72
2023/12/04 03:16:38;;;;;;;33.93;17.60;;;-6.90;28.30;;;;;;5010488;28;20178;-73
2023/12/04 03:19:04;;;;;;;30.60;19.20;;;-6.90;28.20;;;;;;5010454;28;20211;-72
2023/12/04 03:21:29;;;;;;;24.07;17.70;;;-6.90;28.90;;;;;;5010789;28;20199;-71
2023/12/04 03:23:55;;;;;;;23.90;17.47;;;-6.80;28.80;;;;;;5011703;28;20182;-71
2023/12/04 03:26:21;;;;;;;28.07;18.03;;;-6.80;28.90;;;;;;5011777;28;20701;-71
2023/12/04 03:28:46;;;;;;;21.40;14.90;;;-6.80;28.80;;;;;;5011791;28;20736;-70
2023/12/04 03:31:12;;;;;;;25.67;16.70;;;-6.70;29.10;;;;;;5010232;28;20195;-71
2023/12/04 03:33:37;;;;;;;24.57;19.10;;;-6.60;29.30;;;;;;5010627;28;20172;-70
2023/12/04 03:36:03;;;;;;;23.73;16.87;;;-6.70;29.70;;;;;;5011475;28;20176;-71
2023/12/04 03:38:29;;;;;;;28.17;16.87;;;-6.60;29.50;;;;;;5011535;28;20689;-71
2023/12/04 03:40:54;;;;;;;22.10;15.77;;;-6.60;28.90;;;;;;5011401;28;20850;-71
2023/12/04 03:43:20;;;;;;;31.87;18.50;;;-6.50;29.00;;;;;;5011393;28;20685;-72
2023/12/04 03:45:45;;;;;;;25.37;17.40;;;-6.50;29.00;;;;;;5009978;28;20643;-71
2023/12/04 03:48:11;;;;;;;23.50;17.90;;;-6.50;28.60;;;;;;5011922;28;20226;-68
2023/12/04 03:50:36;;;;;;;27.87;17.47;;;-6.50;28.70;;;;;;5015009;28;20222;-69
2023/12/04 03:53:02;;;;;;;28.20;17.67;;;-6.50;29.00;;;;;;5015106;28;20229;-70
2023/12/04 03:55:27;;;;;;;26.37;15.73;;;-6.40;28.80;;;;;;5014928;28;20171;-70
2023/12/04 03:57:54;;;;;;;28.80;18.50;;;-6.40;29.10;;;;;;5014789;28;20204;-70
2023/12/04 04:00:20;;;;;;;24.63;17.73;;;-6.40;28.30;;;;;;5014959;28;20199;-70
2023/12/04 04:02:45;;;;;;;25.57;18.73;;;-6.40;28.80;;;;;;5015212;28;20533;-70
2023/12/04 04:05:11;;;;;;;25.13;19.40;;;-6.40;27.70;;;;;;5014951;28;20175;-70
2023/12/04 04:07:36;;;;;;;25.80;16.30;;;-6.40;27.80;;;;;;5014701;28;20239;-69
2023/12/04 04:10:04;;;;;;;34.27;19.00;;;-6.40;27.90;;;;;;5014744;28;20196;-69
2023/12/04 04:12:30;;;;;;;23.50;16.63;;;-6.40;28.30;;;;;;5014738;28;20180;-70
2023/12/04 04:14:56;;;;;;;23.67;17.83;;;-6.30;29.70;;;;;;5014714;28;20179;-70
2023/12/04 04:17:21;;;;;;;20.87;13.97;;;-6.20;28.30;;;;;;5014498;28;20176;-70
2023/12/04 04:19:47;;;;;;;31.87;18.30;;;-6.10;28.20;;;;;;4999495;28;20215;-70
2023/12/04 04:22:12;;;;;;;22.70;16.03;;;-6.10;27.40;;;;;;4994849;28;20259;-70
2023/12/04 04:24:38;;;;;;;26.73;18.27;;;-6.00;26.90;;;;;;4994752;28;20223;-70
2023/12/04 04:27:04;;;;;;;22.43;15.80;;;-6.00;26.20;;;;;;4994733;28;20187;-70
2023/12/04 04:29:29;;;;;;;21.23;14.57;;;-6.00;26.50;;;;;;4994857;28;20656;-70
2023/12/04 04:31:55;;;;;;;24.43;18.13;;;-5.90;27.50;;;;;;4993513;28;20641;-70
2023/12/04 04:34:21;;;;;;;23.07;15.53;;;-5.90;27.90;;;;;;4994767;28;20675;-69
2023/12/04 04:36:47;;;;;;;24.27;14.43;;;-5.80;46.40;;;;;;4994396;28;20243;-69
2023/12/04 04:39:14;;;;;;;15.23;11.53;;;;;;;;;;4993278;28;20209;-69
2023/12/04 04:41:40;;;;;;;17.25;11.55;;;;;;;;;;4994444;28;20563;-69
2023/12/04 04:44:06;;;;;;;16.98;12.05;;;-5.50;44.90;;;;;;4994515;28;20260;-69
2023/12/04 04:46:31;;;;;;;18.55;13.50;;;;;;;;;;4994443;28;20268;-69
2023/12/04 04:48:58;;;;;;;15.35;11.82;;;;;;;;;;4994560;28;20541;-70
2023/12/04 04:51:24;;;;;;;21.02;15.38;;;;;;;;;;4994799;28;20212;-69
2023/12/04 04:53:50;;;;;;;16.38;12.55;;;;;;;;;;4994388;28;20558;-69
2023/12/04 04:56:16;;;;;;;19.70;13.60;;;;;;;;;;4994112;28;20644;-70
2023/12/04 04:58:42;;;;;;;25.58;13.88;;;;;;;;;;4994049;28;20240;-69
2023/12/04 05:01:09;;;;;;;19.73;15.55;;;;;;;;;;4993688;28;20243;-69
2023/12/04 05:03:35;;;;;;;21.33;14.38;;;;;;;;;;4994296;28;20548;-70
2023/12/04 05:06:00;;;;;;;18.93;13.00;;;;;;;;;;4994135;28;20187;-70
2023/12/04 05:08:26;;;;;;;25.07;14.30;;;;;;;;;;4994097;28;20411;-69
2023/12/04 05:10:52;;;;;;;20.60;14.27;;;;;;;;;;4993957;28;20515;-69
2023/12/04 05:13:18;;;;;;;21.38;15.82;;;;;;;;;;4994044;28;20784;-69
2023/12/04 05:15:44;;;;;;;22.00;15.27;;;;;;;;;;4993872;28;20187;-70
2023/12/04 05:18:10;;;;;;;19.20;11.70;;;;;;;;;;4993943;28;20459;-70
2023/12/04 05:20:36;;;;;;;19.33;12.87;;;;;;;;;;4993981;28;20576;-70
2023/12/04 05:23:02;;;;;;;18.95;13.77;;;;;;;;;;4992769;28;20412;-70
2023/12/04 05:25:28;;;;;;;20.00;13.83;;;;;;;;;;4992515;28;20181;-70
2023/12/04 05:27:54;;;;;;;19.53;14.13;;;;;;;;;;4994018;28;20411;-69
2023/12/04 05:30:20;;;;;;;21.97;14.23;;;-5.50;50.10;;;;;;4993766;28;20518;-69
2023/12/04 05:32:45;;;;;;;22.57;14.67;;;-5.50;50.30;;;;;;4993259;28;20416;-69
2023/12/04 05:35:11;;;;;;;22.27;13.73;;;-5.60;49.90;;;;;;4994248;28;20219;-70
2023/12/04 05:37:37;;;;;;;16.93;13.77;;;-5.60;50.40;;;;;;4992046;28;20212;-70
2023/12/04 05:40:04;;;;;;;23.13;13.67;;;-5.60;51.20;;;;;;4992440;28;20197;-70
2023/12/04 05:42:30;;;;;;;25.88;15.10;;;-5.60;50.80;;;;;;4993569;28;20857;-69
2023/12/04 05:44:57;;;;;;;20.20;14.73;;;-5.50;49.60;;;;;;4993434;28;20268;-70
2023/12/04 05:47:22;;;;;;;22.33;15.07;;;-5.50;50.40;;;;;;4993390;28;20644;-71
2023/12/04 05:49:48;;;;;;;15.80;11.43;;;-5.50;49.20;;;;;;4993208;28;20213;-70
2023/12/04 05:52:13;;;;;;;21.17;13.57;;;-5.40;49.70;;;;;;4993501;28;20707;-70
2023/12/04 05:54:39;;;;;;;19.00;12.30;;;;;;;;;;5001977;28;20192;-70
2023/12/04 05:57:05;;;;;;;19.80;12.87;;;;;;;;;;5011308;28;20215;-70
2023/12/04 05:59:31;;;;;;;14.90;11.23;;;-5.10;20.10;;;;;;5012466;28;20466;-70
2023/12/04 06:01:56;;;;;;;16.30;11.10;;;-5.00;19.80;;;;;;5012737;28;20431;-70
2023/12/04 06:04:22;;;;;;;14.20;10.67;;;-4.90;32.00;;;;;;5013056;28;20203;-70
2023/12/04 06:06:47;;;;;;;12.63;8.90;;;-4.70;36.00;;;;;;5012458;28;20715;-70
2023/12/04 06:09:15;;;;;;;11.60;9.23;;;-4.60;31.60;;;;;;5012654;28;20262;-70
2023/12/04 06:11:40;;;;;;;8.55;6.78;;;-4.50;30.20;;;;;;5011911;28;20207;-70
2023/12/04 06:14:06;;;;;;;18.60;9.77;;;-4.40;27.80;;;;;;5013420;28;20183;-70
2023/12/04 06:16:32;;;;;;;19.03;11.80;;;-4.40;26.20;;;;;;5012875;28;20234;-70
2023/12/04 06:18:57;;;;;;;18.60;12.17;;;-4.40;25.50;;;;;;5011633;28;20473;-71
2023/12/04 06:21:23;;;;;;;16.03;12.17;;;-4.50;25.20;;;;;;5011226;28;20195;-70
2023/12/04 06:23:49;;;;;;;20.23;13.03;;;-4.50;25.10;;;;;;5012821;28;20176;-70
2023/12/04 06:26:15;;;;;;;19.17;11.10;;;-4.60;24.80;;;;;;5012373;28;20191;-70
2023/12/04 06:28:40;;;;;;;20.67;12.50;;;-4.80;24.50;;;;;;5014123;28;20417;-69
2023/12/04 06:31:07;;;;;;;17.97;11.80;;;-4.80;25.40;;;;;;5013483;28;20204;-69
2023/12/04 06:33:32;;;;;;;16.98;12.38;;;-4.80;25.80;;;;;;5013417;28;20191;-68
2023/12/04 06:35:58;;;;;;;18.30;12.10;;;-4.80;26.50;;;;;;5012727;28;20188;-69
2023/12/04 06:38:25;;;;;;;17.67;11.23;;;-4.80;26.60;;;;;;5011979;28;20554;-68
2023/12/04 06:40:51;;;;;;;18.08;12.30;;;-4.70;27.10;;;;;;5012411;28;20466;-69
2023/12/04 06:43:18;;;;;;;16.17;11.87;;;-4.70;26.90;;;;;;5012350;28;20593;-69
2023/12/04 06:45:47;;;;;;;19.25;13.10;;;-4.70;28.00;;;;;;5012209;28;20414;-69
2023/12/04 06:48:17;;;;;;;20.35;13.90;;;-4.80;27.90;;;;;;5012174;28;20259;-69
2023/12/04 06:50:43;;;;;;;19.15;12.20;;;-4.90;26.40;;;;;;5012228;28;20713;-69
2023/12/04 06:53:09;;;;;;;19.00;11.77;;;-5.00;24.40;;;;;;5012321;28;20188;-69
2023/12/04 06:55:34;;;;;;;16.83;12.57;;;-5.10;24.90;;;;;;5011968;28;20596;-69
2023/12/04 06:58:00;;;;;;;14.20;11.70;;;-5.20;25.80;;;;;;5011927;28;20250;-69
2023/12/04 07:00:25;;;;;;;20.23;11.50;;;-5.10;26.30;;;;;;5011902;28;20579;-69
2023/12/04 07:02:51;;;;;;;18.17;12.17;;;-5.10;25.40;;;;;;5011834;28;20165;-69
2023/12/04 07:05:18;;;;;;;18.03;11.27;;;-5.20;26.40;;;;;;5011975;28;20910;-70
2023/12/04 07:07:44;;;;;;;18.58;12.50;;;-5.20;27.00;;;;;;5011929;28;20542;-70
2023/12/04 07:10:14;;;;;;;22.67;14.23;;;-5.10;26.80;;;;;;5011652;28;20199;-69
2023/12/04 07:12:43;;;;;;;18.85;13.00;;;-5.10;28.00;;;;;;5011808;28;20179;-70
2023/12/04 07:15:11;;;;;;;17.35;12.68;;;-5.00;29.10;;;;;;5011792;28;20227;-69
2023/12/04 07:17:37;;;;;;;18.15;11.85;;;-4.90;28.30;;;;;;5012052;28;20554;-69
2023/12/04 07:20:06;;;;;;;17.10;10.93;;;-4.90;29.00;;;;;;5008113;28;20219;-69
2023/12/04 07:22:32;;;;;;;21.65;14.82;;;-4.70;28.90;;;;;;5012564;28;20168;-70
2023/12/04 07:24:57;;;;;;;21.80;15.20;;;-4.70;28.70;;;;;;5015406;28;20249;-72
2023/12/04 07:27:23;;;;;;;18.47;12.03;;;-4.70;28.00;;;;;;5017930;28;20470;-70
2023/12/04 07:29:48;;;;;;;19.30;14.20;;;-4.70;27.60;;;;;;5015486;28;20226;-71
2023/12/04 07:32:14;;;;;;;18.87;12.77;;;-4.70;27.20;;;;;;5015445;28;20258;-70
2023/12/04 07:34:39;;;;;;;17.60;12.07;;;-4.60;27.00;;;;;;5015286;28;20258;-70
2023/12/04 07:37:05;;;;;;;17.50;13.37;;;-4.50;25.70;;;;;;5015951;28;20338;-71
2023/12/04 07:39:30;;;;;;;18.90;11.87;;;-4.50;22.40;;;;;;5014870;28;20215;-70
2023/12/04 07:41:56;;;;;;;26.80;17.30;;;-4.60;22.20;;;;;;5013772;28;20218;-70
2023/12/04 07:44:21;;;;;;;22.63;14.93;;;-4.50;23.50;;;;;;5009770;28;20284;-71
2023/12/04 07:46:47;;;;;;;27.73;16.53;;;-4.50;23.60;;;;;;5011824;28;20266;-70
2023/12/04 07:49:12;;;;;;;23.77;15.90;;;-4.40;22.90;;;;;;5010437;28;20206;-71
2023/12/04 07:51:39;;;;;;;18.30;12.85;;;-4.40;21.90;;;;;;5011282;28;20326;-71
2023/12/04 07:54:05;;;;;;;26.50;15.57;;;-4.30;22.50;;;;;;5010073;28;20199;-71
2023/12/04 07:56:30;;;;;;;19.07;12.47;;;-4.20;22.10;;;;;;5010859;28;20186;-71
2023/12/04 07:58:56;;;;;;;21.00;14.10;;;-4.10;22.40;;;;;;5016797;28;20270;-71
2023/12/04 08:01:23;;;;;;;19.30;13.73;;;-4.10;20.20;;;;;;5008515;28;20208;-71
2023/12/04 08:03:49;;;;;;;22.45;15.82;;;-4.10;19.60;;;;;;5005491;28;20191;-71
2023/12/04 08:06:15;;;;;;;18.23;11.90;;;-4.00;19.80;;;;;;5012477;28;20195;-71
2023/12/04 08:08:41;;;;;;;18.00;13.27;;;-4.00;18.90;;;;;;5018349;28;20399;-71
2023/12/04 08:11:10;;;;;;;20.40;14.40;;;-4.00;19.80;;;;;;5011056;28;20216;-71
2023/12/04 08:13:35;;;;;;;17.92;13.07;;;-3.90;18.60;;;;;;5010797;28;20242;-71
2023/12/04 08:16:01;;;;;;;16.57;11.70;;;-3.90;18.30;;;;;;5010811;28;20192;-71
2023/12/04 08:18:27;;;;;;;24.67;14.47;;;-4.00;17.50;;;;;;5010986;28;20603;-71
2023/12/04 08:20:52;;;;;;;17.47;12.37;;;-3.80;17.90;;;;;;5010543;28;20435;-71
2023/12/04 08:23:18;;;;;;;21.33;13.47;;;-4.00;17.90;;;;;;5011171;28;20188;-71
2023/12/04 08:25:44;;;;;;;16.92;12.15;;;-3.90;18.50;;;;;;5012495;28;20180;-71
2023/12/04 08:28:09;;;;;;;24.83;12.50;;;-3.70;18.40;;;;;;5018461;28;20193;-71
2023/12/04 08:30:35;;;;;;;15.63;12.07;;;-3.60;16.70;;;;;;5010212;28;20204;-70
2023/12/04 08:33:01;;;;;;;17.87;13.00;;;-3.50;16.00;;;;;;5010128;28;20206;-70
2023/12/04 08:35:26;;;;;;;16.10;11.53;;;-3.60;15.70;;;;;;5009240;28;20188;-70
2023/12/04 08:37:52;;;;;;;15.53;11.73;;;-3.40;17.10;;;;;;5010838;28;20212;-70
2023/12/04 08:40:17;;;;;;;17.87;12.27;;;-3.40;16.70;;;;;;5011053;28;20586;-71
2023/12/04 08:42:44;;;;;;;24.20;12.07;;;-3.20;17.10;;;;;;5010059;28;20700;-70
2023/12/04 08:45:10;;;;;;;21.27;13.00;;;-3.00;17.90;;;;;;5010941;28;20563;-69
2023/12/04 08:47:36;;;;;;;19.73;11.13;;;-3.00;16.40;;;;;;5010126;28;20191;-69
2023/12/04 08:50:01;;;;;;;16.80;12.57;;;-2.90;17.20;;;;;;5011143;28;20721;-71
2023/12/04 08:52:27;;;;;;;16.27;11.73;;;-2.90;17.40;;;;;;5013344;28;20433;-70
2023/12/04 08:54:53;;;;;;;17.00;12.90;;;-2.80;18.70;;;;;;5013870;28;20618;-70
2023/12/04 08:57:19;;;;;;;15.52;10.15;;;-2.70;19.00;;;;;;5007089;28;20192;-70
2023/12/04 08:59:45;;;;;;;18.80;12.83;;;-2.60;18.30;;;;;;5010156;28;20226;-70
2023/12/04 09:02:10;;;;;;;19.90;13.37;;;-2.40;20.10;;;;;;5009424;28;20181;-70
2023/12/04 09:04:36;;;;;;;18.60;13.40;;;-2.20;19.20;;;;;;5009781;28;20360;-73
2023/12/04 09:07:01;;;;;;;21.47;13.20;;;-2.20;19.40;;;;;;5008771;28;20558;-70
2023/12/04 09:09:27;;;;;;;16.10;11.90;;;-2.30;19.50;;;;;;5009290;28;20193;-70
2023/12/04 09:11:52;;;;;;;21.33;15.03;;;-2.20;19.40;;;;;;5009942;28;20204;-71
2023/12/04 09:14:18;;;;;;;18.27;12.60;;;-2.10;19.80;;;;;;5009272;28;20190;-70
2023/12/04 09:16:43;;;;;;;20.70;13.90;;;-2.00;18.90;;;;;;5013401;28;20279;-70
2023/12/04 09:19:09;;;;;;;15.30;11.90;;;-2.00;18.00;;;;;;5009827;28;20294;-70
2023/12/04 09:21:35;;;;;;;18.60;11.67;;;-2.00;18.20;;;;;;5003538;28;20935;-70
2023/12/04 09:24:01;;;;;;;18.25;12.63;;;-1.80;18.80;;;;;;5003568;28;20190;-70
2023/12/04 09:26:26;;;;;;;20.07;13.07;;;-1.60;18.40;;;;;;5010418;28;20671;-73
2023/12/04 09:28:52;;;;;;;20.27;14.97;;;-1.50;19.80;;;;;;5013218;28;20650;-70
2023/12/04 09:31:18;;;;;;;22.90;17.17;;;-1.30;18.40;;;;;;5012920;28;20206;-70
2023/12/04 09:33:43;;;;;;;23.27;14.83;;;-1.10;16.30;;;;;;5007036;28;20218;-70
2023/12/04 09:36:09;;;;;;;21.50;15.40;;;-1.00;14.90;;;;;;5006140;28;20441;-70
2023/12/04 09:38:35;;;;;;;20.80;14.90;;;-0.80;16.40;;;;;;5007552;28;20195;-70
2023/12/04 09:41:02;;;;;;;20.75;14.93;;;-0.50;17.40;;;;;;5008736;28;20193;-70
2023/12/04 09:43:35;;;;;;;21.73;13.20;;;-0.30;17.10;;;;;;5011131;28;20190;-70
2023/12/04 09:46:01;;;;;;;19.13;14.23;;;-0.30;16.80;;;;;;5012277;28;20190;-70
2023/12/04 09:48:28;;;;;;;17.30;12.33;;;-0.30;15.50;;;;;;5012759;28;20730;-70
2023/12/04 09:50:54;;;;;;;19.10;12.57;;;-0.20;16.10;;;;;;5012865;28;20462;-72
2023/12/04 09:53:21;;;;;;;16.13;12.15;;;-0.10;15.40;;;;;;5012849;28;20190;-71
2023/12/04 09:55:49;;;;;;;19.20;11.90;;;-0.10;14.10;;;;;;5013022;28;20228;-71
2023/12/04 09:58:15;;;;;;;17.55;10.68;;;-0.20;14.20;;;;;;5012835;28;20290;-72
2023/12/04 10:00:42;;;;;;;14.52;8.85;;;-0.10;13.70;;;;;;5012415;28;20269;-71
2023/12/04 10:03:08;;;;;;;16.48;9.55;;;0.00;10.70;;;;;;5012874;28;20540;-71
2023/12/04 10:05:34;;;;;;;11.30;7.83;;;0.20;11.70;;;;;;5012226;28;20194;-71
2023/12/04 10:07:59;;;;;;;11.70;7.67;;;0.20;10.50;;;;;;5012597;28;20198;-71
2023/12/04 10:10:26;;;;;;;12.70;7.00;;;-0.10;11.40;;;;;;5012330;28;20211;-72
2023/12/04 10:12:51;;;;;;;13.65;7.57;;;-0.20;11.30;;;;;;5017020;28;20559;-71
2023/12/04 10:15:17;;;;;;;10.60;6.23;;;0.00;11.80;;;;;;5020081;28;20183;-71
2023/12/04 10:17:43;;;;;;;8.57;6.87;;;0.40;12.20;;;;;;5014741;28;20191;-72
2023/12/04 10:20:17;;;;;;;11.32;6.65;;;0.50;8.70;;;;;;5012322;28;20199;-72
2023/12/04 10:23:03;;;;;;;9.10;6.60;;;0.80;9.20;;;;;;5010828;28;20555;-72
2023/12/04 10:25:30;;;;;;;11.40;7.18;;;1.10;9.10;;;;;;5010275;28;20188;-72
2023/12/04 10:28:15;;;;;;;9.48;5.85;;;1.40;4.50;;;;;;5021117;28;20751;-72
2023/12/04 10:30:41;;;;;;;12.45;6.95;;;1.30;4.30;;;;;;5010493;28;20592;-71
2023/12/04 10:33:08;;;;;;;11.97;7.87;;;1.10;3.90;;;;;;5015935;28;20187;-71
2023/12/04 10:35:38;;;;;;;10.35;7.75;;;1.10;4.10;;;;;;5011900;28;20590;-71
2023/12/04 10:38:06;;;;;;;11.65;7.00;;;1.20;4.80;;;;;;5011638;28;20219;-71
2023/12/04 10:40:37;;;;;;;9.75;7.20;;;0.90;5.80;;;;;;5012511;28;20678;-71
2023/12/04 10:43:14;;;;;;;9.98;7.40;;;1.10;6.30;;;;;;5015453;28;20185;-70
2023/12/04 10:45:41;;;;;;;10.68;7.70;;;1.20;5.50;;;;;;5011878;28;20183;-72
2023/12/04 10:48:07;;;;;;;16.58;8.30;;;0.80;6.30;;;;;;5012151;28;20607;-71
2023/12/04 10:50:34;;;;;;;16.35;10.32;;;0.90;8.30;;;;;;5017167;28;20697;-72
2023/12/04 10:53:03;;;;;;;13.25;8.23;;;1.20;7.80;;;;;;5017823;28;20175;-72
2023/12/04 10:55:30;;;;;;;10.82;7.63;;;1.40;7.10;;;;;;5017534;28;20175;-72
2023/12/04 10:57:56;;;;;;;11.10;9.10;;;1.40;5.50;;;;;;5012050;28;20207;-71
2023/12/04 11:00:22;;;;;;;11.57;8.68;;;1.30;5.70;;;;;;5023217;28;20195;-71
2023/12/04 11:02:49;;;;;;;10.05;8.75;;;1.50;5.50;;;;;;5017500;28;20192;-72
2023/12/04 11:05:21;;;;;;;10.90;7.80;;;1.60;5.30;;;;;;5018464;28;20590;-72
2023/12/04 11:07:59;;;;;;;9.82;7.90;;;1.70;5.70;;;;;;5016488;28;20663;-72
2023/12/04 11:10:27;;;;;;;15.20;8.85;;;1.60;5.40;;;;;;5010776;28;20225;-69
2023/12/04 11:13:21;;;;;;;12.40;8.85;;;1.50;6.10;;;;;;5013301;28;20326;-71
2023/12/04 11:15:50;;;;;;;13.82;9.30;;;1.50;7.50;;;;;;5003450;28;20188;-72
2023/12/04 11:18:17;;;;;;;13.95;9.18;;;1.50;7.00;;;;;;5011423;28;20200;-72
2023/12/04 11:21:04;;;;;;;16.00;8.45;;;1.50;7.40;;;;;;5012638;28;20618;-72
2023/12/04 11:23:31;;;;;;;13.60;8.35;;;1.60;6.60;;;;;;5012501;28;20180;-71
2023/12/04 11:26:05;;;;;;;15.57;10.77;;;1.70;7.00;;;;;;5012512;28;20750;-73
2023/12/04 11:28:32;;;;;;;13.23;10.57;;;1.80;7.00;;;;;;5013150;28;20196;-72
2023/12/04 11:31:04;;;;;;;13.45;9.23;;;2.10;7.90;;;;;;5012465;28;20235;-72
2023/12/04 11:33:38;;;;;;;16.05;10.57;;;2.00;7.80;;;;;;5012500;28;20272;-72
2023/12/04 11:36:14;;;;;;;13.43;9.77;;;;;;;;;;5012887;28;20206;-72
2023/12/04 11:38:45;;;;;;;11.55;9.20;;;;;;;;;;5010328;28;20221;-70
2023/12/04 11:41:19;;;;;;;16.52;10.00;;;;;;;;;;5011800;28;20239;-73
2023/12/04 11:43:47;;;;;;;14.05;10.15;;;;;;;;;;5011578;28;20187;-72
2023/12/04 11:46:14;;;;;;;23.55;19.20;;;;;;;;;;5011462;28;20172;-71
2023/12/04 11:48:40;;;;;;;12.40;10.75;;;;;;;;;;5011373;28;20313;-71
2023/12/04 11:54:00;;;;;;;15.50;10.20;;;;;;;;;;5011563;28;20225;-73
2023/12/04 11:56:26;;;;;;;13.60;11.13;;;;;;;;;;5011213;28;20599;-71
2023/12/04 11:58:52;;;;;;;12.38;9.38;;;;;;;;;;4997973;28;20460;-73
2023/12/04 12:01:21;;;;;;;13.20;10.10;;;;;;;;;;4991711;28;20203;-71
2023/12/04 12:03:53;;;;;;;12.65;10.63;;;;;;;;;;4998817;28;20829;-73
2023/12/04 12:06:19;;;;;;;19.75;13.23;;;;;;;;;;4991673;28;20318;-72
2023/12/04 12:08:45;;;;;;;20.43;14.57;;;;;;;;;;4992138;28;20657;-73
2023/12/04 12:11:12;;;;;;;17.77;12.23;;;;;;;;;;4994649;28;20439;-72
2023/12/04 12:13:44;;;;;;;27.03;16.37;;;;;;;;;;4995319;28;20451;-72
2023/12/04 12:16:11;;;;;;;13.18;9.60;;;;;;;;;;4995346;28;20770;-71
2023/12/04 12:18:38;;;;;;;15.50;10.80;;;;;;;;;;5010904;28;20208;-71
2023/12/04 12:21:04;;;;;;;18.93;12.53;;;;;;;;;;5006397;28;20806;-71
2023/12/04 12:23:30;;;;;;;15.13;11.70;;;5.20;5.10;;;;;;4994793;28;20411;-71
2023/12/04 12:25:55;;;;;;;17.30;13.37;;;5.00;6.20;;;;;;4994639;28;20434;-72
2023/12/04 12:28:22;;;;;;;19.00;12.30;;;5.10;6.60;;;;;;5005014;28;20269;-72
2023/12/04 12:30:47;;;;;;;19.23;12.80;;;5.10;6.40;;;;;;5014329;28;20204;-72
2023/12/04 12:33:15;;;;;;;16.37;11.73;;;5.10;6.60;;;;;;5014326;28;20426;-72
2023/12/04 12:35:41;;;;;;;13.70;10.40;;;5.00;6.80;;;;;;5013902;28;20188;-72
2023/12/04 12:38:07;;;;;;;11.77;9.10;;;5.00;6.60;;;;;;5014307;28;20771;-72
2023/12/04 12:40:32;;;;;;;31.03;18.90;;;5.00;5.70;;;;;;5014182;28;20469;-72
2023/12/04 12:43:09;;;;;;;22.40;15.17;;;4.90;6.10;;;;;;5013868;28;20423;-72
2023/12/04 12:45:42;;;;;;;24.20;15.87;;;4.30;7.30;;;;;;5013929;28;20182;-71
2023/12/04 12:48:13;;;;;;;18.57;11.63;;;4.40;8.00;;;;;;5014321;28;20425;-71
2023/12/04 12:50:38;;;;;;;19.40;12.10;;;4.10;7.70;;;;;;5013924;28;20466;-72
2023/12/04 12:53:04;;;;;;;14.27;12.80;;;3.80;9.70;;;;;;5013997;28;20785;-72
2023/12/04 12:55:29;;;;;;;17.60;12.90;;;3.40;10.10;;;;;;5013799;28;20189;-71